sensor_id;sensor_type;location;lat;lon;timestamp;temperature;humidity
16700;DHT22;8466;52.286;21.124;2022-12-11T00:02:25;-0.10;99.90
16700;DHT22;8466;52.286;21.124;2022-12-11T00:04:55;-0.20;99.90
16700;DHT22;8466;52.286;21.124;2022-12-11T00:07:24;-0.20;99.90
16700;DHT22;8466;52.286;21.124;2022-12-11T00:09:53;-0.20;99.90
16700;DHT22;8466;52.286;21.124;2022-12-11T00:12:22;-0.30;99.90
16700;DHT22;8466;52.286;21.124;2022-12-11T00:14:51;-0.30;99.90
16700;DHT22;8466;52.286;21.124;2022-12-11T00:17:26;-0.30;99.90
16700;DHT22;8466;52.286;21.124;2022-12-11T00:19:55;-0.30;99.90
16700;DHT22;8466;52.286;21.124;2022-12-11T00:22:26;-0.30;99.90
16700;DHT22;8466;52.286;21.124;2022-12-11T00:24:56;-0.30;99.90
16700;DHT22;8466;52.286;21.124;2022-12-11T00:27:25;-0.30;99.90
16700;DHT22;8466;52.286;21.124;2022-12-11T00:29:55;-0.40;99.90
16700;DHT22;8466;52.286;21.124;2022-12-11T00:32:25;-0.40;99.90
16700;DHT22;8466;52.286;21.124;2022-12-11T00:34:58;-0.40;99.90
16700;DHT22;8466;52.286;21.124;2022-12-11T00:37:27;-0.40;99.90
16700;DHT22;8466;52.286;21.124;2022-12-11T00:39:58;-0.50;99.90
16700;DHT22;8466;52.286;21.124;2022-12-11T00:42:27;-0.50;99.90
16700;DHT22;8466;52.286;21.124;2022-12-11T00:44:58;-0.50;99.90
16700;DHT22;8466;52.286;21.124;2022-12-11T00:47:28;-0.50;99.90
16700;DHT22;8466;52.286;21.124;2022-12-11T00:49:56;-0.50;99.90
16700;DHT22;8466;52.286;21.124;2022-12-11T00:52:26;-0.50;99.90
16700;DHT22;8466;52.286;21.124;2022-12-11T00:54:54;-0.40;99.90
16700;DHT22;8466;52.286;21.124;2022-12-11T00:57:25;-0.50;99.90
16700;DHT22;8466;52.286;21.124;2022-12-11T00:59:53;-0.40;99.90
16700;DHT22;8466;52.286;21.124;2022-12-11T01:02:22;-0.50;99.90
16700;DHT22;8466;52.286;21.124;2022-12-11T01:04:53;-0.50;99.90
16700;DHT22;8466;52.286;21.124;2022-12-11T01:07:22;-0.50;99.90
16700;DHT22;8466;52.286;21.124;2022-12-11T01:09:50;-0.60;99.90
16700;DHT22;8466;52.286;21.124;2022-12-11T01:12:37;-0.60;99.90
16700;DHT22;8466;52.286;21.124;2022-12-11T01:15:06;-0.60;99.90
16700;DHT22;8466;52.286;21.124;2022-12-11T01:17:35;-0.60;99.90
16700;DHT22;8466;52.286;21.124;2022-12-11T01:20:10;-0.70;99.90
16700;DHT22;8466;52.286;21.124;2022-12-11T01:22:39;-0.70;99.90
16700;DHT22;8466;52.286;21.124;2022-12-11T01:25:08;-0.80;99.90
16700;DHT22;8466;52.286;21.124;2022-12-11T01:27:38;-0.80;99.90
16700;DHT22;8466;52.286;21.124;2022-12-11T01:30:08;-0.80;99.90
16700;DHT22;8466;52.286;21.124;2022-12-11T01:32:37;-0.80;99.90
16700;DHT22;8466;52.286;21.124;2022-12-11T01:35:10;-0.90;99.90
16700;DHT22;8466;52.286;21.124;2022-12-11T01:37:39;-0.90;99.90
16700;DHT22;8466;52.286;21.124;2022-12-11T01:40:10;-0.80;99.90
16700;DHT22;8466;52.286;21.124;2022-12-11T01:42:41;-0.90;99.90
16700;DHT22;8466;52.286;21.124;2022-12-11T01:45:26;-0.80;99.90
16700;DHT22;8466;52.286;21.124;2022-12-11T01:48:03;-0.80;99.90
16700;DHT22;8466;52.286;21.124;2022-12-11T01:50:37;-0.90;99.90
16700;DHT22;8466;52.286;21.124;2022-12-11T01:53:09;-1.00;99.90
16700;DHT22;8466;52.286;21.124;2022-12-11T01:55:40;-1.00;99.90
16700;DHT22;8466;52.286;21.124;2022-12-11T01:58:09;-1.00;99.90
16700;DHT22;8466;52.286;21.124;2022-12-11T02:00:39;-1.00;99.90
16700;DHT22;8466;52.286;21.124;2022-12-11T02:03:08;-1.00;99.90
16700;DHT22;8466;52.286;21.124;2022-12-11T02:05:39;-1.10;99.90
16700;DHT22;8466;52.286;21.124;2022-12-11T02:08:08;-1.00;99.90
16700;DHT22;8466;52.286;21.124;2022-12-11T02:10:47;-1.10;99.90
16700;DHT22;8466;52.286;21.124;2022-12-11T02:13:22;-1.10;99.90
16700;DHT22;8466;52.286;21.124;2022-12-11T02:15:59;-1.10;99.90
16700;DHT22;8466;52.286;21.124;2022-12-11T02:18:37;-1.10;99.90
16700;DHT22;8466;52.286;21.124;2022-12-11T02:21:15;-1.00;99.90
16700;DHT22;8466;52.286;21.124;2022-12-11T02:24:08;-1.00;99.90
16700;DHT22;8466;52.286;21.124;2022-12-11T02:26:53;-1.00;99.90
16700;DHT22;8466;52.286;21.124;2022-12-11T02:29:32;-1.10;99.90
16700;DHT22;8466;52.286;21.124;2022-12-11T02:32:07;-1.00;99.90
16700;DHT22;8466;52.286;21.124;2022-12-11T02:34:40;-1.10;99.90
16700;DHT22;8466;52.286;21.124;2022-12-11T02:37:15;-1.10;99.90
16700;DHT22;8466;52.286;21.124;2022-12-11T02:39:47;-1.10;99.90
16700;DHT22;8466;52.286;21.124;2022-12-11T02:42:17;-1.10;99.90
16700;DHT22;8466;52.286;21.124;2022-12-11T02:44:50;-1.10;99.90
16700;DHT22;8466;52.286;21.124;2022-12-11T02:47:20;-1.10;99.90
16700;DHT22;8466;52.286;21.124;2022-12-11T02:49:49;-1.20;99.90
16700;DHT22;8466;52.286;21.124;2022-12-11T02:52:21;-1.10;99.90
16700;DHT22;8466;52.286;21.124;2022-12-11T02:54:53;-1.20;99.90
16700;DHT22;8466;52.286;21.124;2022-12-11T02:57:26;-1.20;99.90
16700;DHT22;8466;52.286;21.124;2022-12-11T02:59:57;-1.20;99.90
16700;DHT22;8466;52.286;21.124;2022-12-11T03:02:26;-1.20;99.90
16700;DHT22;8466;52.286;21.124;2022-12-11T03:04:55;-1.30;99.90
16700;DHT22;8466;52.286;21.124;2022-12-11T03:07:30;-1.30;99.90
16700;DHT22;8466;52.286;21.124;2022-12-11T03:10:00;-1.30;99.90
16700;DHT22;8466;52.286;21.124;2022-12-11T03:12:31;-1.40;99.90
16700;DHT22;8466;52.286;21.124;2022-12-11T03:15:05;-1.30;99.90
16700;DHT22;8466;52.286;21.124;2022-12-11T03:17:42;-1.30;99.90
16700;DHT22;8466;52.286;21.124;2022-12-11T03:20:18;-1.30;99.90
16700;DHT22;8466;52.286;21.124;2022-12-11T03:22:53;-1.30;99.90
16700;DHT22;8466;52.286;21.124;2022-12-11T03:25:28;-1.30;99.90
16700;DHT22;8466;52.286;21.124;2022-12-11T03:28:05;-1.30;99.90
16700;DHT22;8466;52.286;21.124;2022-12-11T03:30:39;-1.30;99.90
16700;DHT22;8466;52.286;21.124;2022-12-11T03:33:11;-1.30;99.90
16700;DHT22;8466;52.286;21.124;2022-12-11T03:35:43;-1.30;99.90
16700;DHT22;8466;52.286;21.124;2022-12-11T03:38:15;-1.40;99.90
16700;DHT22;8466;52.286;21.124;2022-12-11T03:40:48;-1.30;99.90
16700;DHT22;8466;52.286;21.124;2022-12-11T03:43:19;-1.30;99.90
16700;DHT22;8466;52.286;21.124;2022-12-11T03:45:51;-1.30;99.90
16700;DHT22;8466;52.286;21.124;2022-12-11T03:48:22;-1.30;99.90
16700;DHT22;8466;52.286;21.124;2022-12-11T03:50:52;-1.30;99.90
16700;DHT22;8466;52.286;21.124;2022-12-11T03:53:23;-1.30;99.90
16700;DHT22;8466;52.286;21.124;2022-12-11T03:55:54;-1.30;99.90
16700;DHT22;8466;52.286;21.124;2022-12-11T03:58:24;-1.40;99.90
16700;DHT22;8466;52.286;21.124;2022-12-11T04:00:54;-1.30;99.90
16700;DHT22;8466;52.286;21.124;2022-12-11T04:03:23;-1.30;99.90
16700;DHT22;8466;52.286;21.124;2022-12-11T04:05:54;-1.20;99.90
16700;DHT22;8466;52.286;21.124;2022-12-11T04:08:23;-1.30;99.90
16700;DHT22;8466;52.286;21.124;2022-12-11T04:10:51;-1.30;99.90
16700;DHT22;8466;52.286;21.124;2022-12-11T04:13:40;-1.40;99.90
16700;DHT22;8466;52.286;21.124;2022-12-11T04:16:11;-1.50;99.90
16700;DHT22;8466;52.286;21.124;2022-12-11T04:18:38;-1.50;99.90
16700;DHT22;8466;52.286;21.124;2022-12-11T04:21:24;-1.50;99.90
16700;DHT22;8466;52.286;21.124;2022-12-11T04:24:10;-1.50;99.90
16700;DHT22;8466;52.286;21.124;2022-12-11T04:26:46;-1.50;99.90
16700;DHT22;8466;52.286;21.124;2022-12-11T04:29:15;-1.50;99.90
16700;DHT22;8466;52.286;21.124;2022-12-11T04:31:45;-1.50;99.90
16700;DHT22;8466;52.286;21.124;2022-12-11T04:34:14;-1.50;99.90
16700;DHT22;8466;52.286;21.124;2022-12-11T04:36:43;-1.50;99.90
16700;DHT22;8466;52.286;21.124;2022-12-11T04:39:11;-1.40;99.90
16700;DHT22;8466;52.286;21.124;2022-12-11T04:41:41;-1.40;99.90
16700;DHT22;8466;52.286;21.124;2022-12-11T04:44:10;-1.40;99.90
16700;DHT22;8466;52.286;21.124;2022-12-11T04:46:38;-1.40;99.90
16700;DHT22;8466;52.286;21.124;2022-12-11T04:49:09;-1.40;99.90
16700;DHT22;8466;52.286;21.124;2022-12-11T04:51:38;-1.30;99.90
16700;DHT22;8466;52.286;21.124;2022-12-11T04:54:07;-1.40;99.90
16700;DHT22;8466;52.286;21.124;2022-12-11T04:56:36;-1.40;99.90
16700;DHT22;8466;52.286;21.124;2022-12-11T04:59:05;-1.50;99.90
16700;DHT22;8466;52.286;21.124;2022-12-11T05:01:33;-1.50;99.90
16700;DHT22;8466;52.286;21.124;2022-12-11T05:04:02;-1.50;99.90
16700;DHT22;8466;52.286;21.124;2022-12-11T05:06:32;-1.50;99.90
16700;DHT22;8466;52.286;21.124;2022-12-11T05:09:01;-1.50;99.90
16700;DHT22;8466;52.286;21.124;2022-12-11T05:11:30;-1.60;99.90
16700;DHT22;8466;52.286;21.124;2022-12-11T05:13:59;-1.60;99.90
16700;DHT22;8466;52.286;21.124;2022-12-11T05:16:28;-1.60;99.90
16700;DHT22;8466;52.286;21.124;2022-12-11T05:18:57;-1.60;99.90
16700;DHT22;8466;52.286;21.124;2022-12-11T05:21:26;-1.60;99.90
16700;DHT22;8466;52.286;21.124;2022-12-11T05:24:02;-1.60;99.90
16700;DHT22;8466;52.286;21.124;2022-12-11T05:26:31;-1.60;99.90
16700;DHT22;8466;52.286;21.124;2022-12-11T05:29:00;-1.70;99.90
16700;DHT22;8466;52.286;21.124;2022-12-11T05:31:29;-1.70;99.90
16700;DHT22;8466;52.286;21.124;2022-12-11T05:33:58;-1.70;99.90
16700;DHT22;8466;52.286;21.124;2022-12-11T05:36:29;-1.70;99.90
16700;DHT22;8466;52.286;21.124;2022-12-11T05:39:03;-1.60;99.90
16700;DHT22;8466;52.286;21.124;2022-12-11T05:41:37;-1.70;99.90
16700;DHT22;8466;52.286;21.124;2022-12-11T05:44:12;-1.70;99.90
16700;DHT22;8466;52.286;21.124;2022-12-11T05:46:44;-1.70;99.90
16700;DHT22;8466;52.286;21.124;2022-12-11T05:49:13;-1.80;99.90
16700;DHT22;8466;52.286;21.124;2022-12-11T05:51:46;-1.80;99.90
16700;DHT22;8466;52.286;21.124;2022-12-11T05:54:16;-1.80;99.90
16700;DHT22;8466;52.286;21.124;2022-12-11T05:56:45;-1.80;99.90
16700;DHT22;8466;52.286;21.124;2022-12-11T05:59:13;-1.90;99.90
16700;DHT22;8466;52.286;21.124;2022-12-11T06:01:42;-1.90;99.90
16700;DHT22;8466;52.286;21.124;2022-12-11T06:04:12;-1.90;99.90
16700;DHT22;8466;52.286;21.124;2022-12-11T06:06:41;-2.00;99.90
16700;DHT22;8466;52.286;21.124;2022-12-11T06:09:12;-2.00;99.90
16700;DHT22;8466;52.286;21.124;2022-12-11T06:11:43;-2.00;99.90
16700;DHT22;8466;52.286;21.124;2022-12-11T06:14:12;-1.90;99.90
16700;DHT22;8466;52.286;21.124;2022-12-11T06:16:40;-2.00;99.90
16700;DHT22;8466;52.286;21.124;2022-12-11T06:19:12;-2.10;99.90
16700;DHT22;8466;52.286;21.124;2022-12-11T06:21:43;-2.10;99.90
16700;DHT22;8466;52.286;21.124;2022-12-11T06:24:12;-2.00;99.90
16700;DHT22;8466;52.286;21.124;2022-12-11T06:26:42;-2.00;99.90
16700;DHT22;8466;52.286;21.124;2022-12-11T06:29:11;-2.00;99.90
16700;DHT22;8466;52.286;21.124;2022-12-11T06:31:40;-2.00;99.90
16700;DHT22;8466;52.286;21.124;2022-12-11T06:34:10;-2.10;99.90
16700;DHT22;8466;52.286;21.124;2022-12-11T06:36:39;-2.00;99.90
16700;DHT22;8466;52.286;21.124;2022-12-11T06:39:08;-2.10;99.90
16700;DHT22;8466;52.286;21.124;2022-12-11T06:41:38;-2.10;99.90
16700;DHT22;8466;52.286;21.124;2022-12-11T06:44:10;-2.10;99.90
16700;DHT22;8466;52.286;21.124;2022-12-11T06:46:40;-2.20;99.90
16700;DHT22;8466;52.286;21.124;2022-12-11T06:49:08;-2.20;99.90
16700;DHT22;8466;52.286;21.124;2022-12-11T06:51:37;-2.30;99.90
16700;DHT22;8466;52.286;21.124;2022-12-11T06:54:07;-2.30;99.90
16700;DHT22;8466;52.286;21.124;2022-12-11T06:56:36;-2.30;99.90
16700;DHT22;8466;52.286;21.124;2022-12-11T06:59:05;-2.40;99.90
16700;DHT22;8466;52.286;21.124;2022-12-11T07:01:38;-2.40;99.90
16700;DHT22;8466;52.286;21.124;2022-12-11T07:04:33;-2.40;99.90
16700;DHT22;8466;52.286;21.124;2022-12-11T07:07:03;-2.30;99.90
16700;DHT22;8466;52.286;21.124;2022-12-11T07:09:32;-2.30;99.90
16700;DHT22;8466;52.286;21.124;2022-12-11T07:12:00;-2.40;99.90
16700;DHT22;8466;52.286;21.124;2022-12-11T07:14:30;-2.40;99.90
16700;DHT22;8466;52.286;21.124;2022-12-11T07:17:00;-2.40;99.90
16700;DHT22;8466;52.286;21.124;2022-12-11T07:19:29;-2.40;99.90
16700;DHT22;8466;52.286;21.124;2022-12-11T07:21:58;-2.40;99.90
16700;DHT22;8466;52.286;21.124;2022-12-11T07:24:27;-2.40;99.90
16700;DHT22;8466;52.286;21.124;2022-12-11T07:26:56;-2.40;99.90
16700;DHT22;8466;52.286;21.124;2022-12-11T07:29:25;-2.40;99.90
16700;DHT22;8466;52.286;21.124;2022-12-11T07:31:54;-2.40;99.90
16700;DHT22;8466;52.286;21.124;2022-12-11T07:34:24;-2.50;99.90
16700;DHT22;8466;52.286;21.124;2022-12-11T07:36:53;-2.40;99.90
16700;DHT22;8466;52.286;21.124;2022-12-11T07:39:22;-2.40;99.90
16700;DHT22;8466;52.286;21.124;2022-12-11T07:41:51;-2.40;99.90
16700;DHT22;8466;52.286;21.124;2022-12-11T07:44:21;-2.40;99.90
16700;DHT22;8466;52.286;21.124;2022-12-11T07:46:50;-2.40;99.90
16700;DHT22;8466;52.286;21.124;2022-12-11T07:49:19;-2.30;99.90
16700;DHT22;8466;52.286;21.124;2022-12-11T07:51:49;-2.20;99.90
16700;DHT22;8466;52.286;21.124;2022-12-11T07:54:18;-2.20;99.90
16700;DHT22;8466;52.286;21.124;2022-12-11T07:56:47;-2.20;99.90
16700;DHT22;8466;52.286;21.124;2022-12-11T07:59:20;-2.20;99.90
16700;DHT22;8466;52.286;21.124;2022-12-11T08:01:49;-2.20;99.90
16700;DHT22;8466;52.286;21.124;2022-12-11T08:04:18;-2.20;99.90
16700;DHT22;8466;52.286;21.124;2022-12-11T08:06:47;-2.20;99.90
16700;DHT22;8466;52.286;21.124;2022-12-11T08:09:20;-2.30;99.90
16700;DHT22;8466;52.286;21.124;2022-12-11T08:11:51;-2.20;99.90
16700;DHT22;8466;52.286;21.124;2022-12-11T08:14:20;-2.20;99.90
16700;DHT22;8466;52.286;21.124;2022-12-11T08:16:49;-2.20;99.90
16700;DHT22;8466;52.286;21.124;2022-12-11T08:19:18;-2.30;99.90
16700;DHT22;8466;52.286;21.124;2022-12-11T08:21:47;-2.30;99.90
16700;DHT22;8466;52.286;21.124;2022-12-11T08:24:17;-2.30;99.90
16700;DHT22;8466;52.286;21.124;2022-12-11T08:26:47;-2.30;99.90
16700;DHT22;8466;52.286;21.124;2022-12-11T08:29:16;-2.40;99.90
16700;DHT22;8466;52.286;21.124;2022-12-11T08:31:45;-2.30;99.90
16700;DHT22;8466;52.286;21.124;2022-12-11T08:34:14;-2.30;99.90
16700;DHT22;8466;52.286;21.124;2022-12-11T08:36:43;-2.30;99.90
16700;DHT22;8466;52.286;21.124;2022-12-11T08:39:12;-2.20;99.90
16700;DHT22;8466;52.286;21.124;2022-12-11T08:41:43;-2.20;99.90
16700;DHT22;8466;52.286;21.124;2022-12-11T08:44:12;-2.20;99.90
16700;DHT22;8466;52.286;21.124;2022-12-11T08:46:43;-2.20;99.90
16700;DHT22;8466;52.286;21.124;2022-12-11T08:49:12;-2.20;99.90
16700;DHT22;8466;52.286;21.124;2022-12-11T08:51:41;-2.10;99.90
16700;DHT22;8466;52.286;21.124;2022-12-11T08:54:10;-2.40;99.90
16700;DHT22;8466;52.286;21.124;2022-12-11T08:56:39;-2.10;99.90
16700;DHT22;8466;52.286;21.124;2022-12-11T08:59:09;-2.10;99.90
16700;DHT22;8466;52.286;21.124;2022-12-11T09:01:38;-2.10;99.90
16700;DHT22;8466;52.286;21.124;2022-12-11T09:04:06;-2.00;99.90
16700;DHT22;8466;52.286;21.124;2022-12-11T09:06:35;-2.00;99.90
16700;DHT22;8466;52.286;21.124;2022-12-11T09:09:04;-1.90;99.90
16700;DHT22;8466;52.286;21.124;2022-12-11T09:11:35;-1.90;99.90
16700;DHT22;8466;52.286;21.124;2022-12-11T09:14:04;-1.90;99.90
16700;DHT22;8466;52.286;21.124;2022-12-11T09:16:37;-1.90;99.90
16700;DHT22;8466;52.286;21.124;2022-12-11T09:19:08;-1.90;99.90
16700;DHT22;8466;52.286;21.124;2022-12-11T09:21:38;-1.90;99.90
16700;DHT22;8466;52.286;21.124;2022-12-11T09:24:08;-1.90;99.90
16700;DHT22;8466;52.286;21.124;2022-12-11T09:26:38;-1.80;99.90
16700;DHT22;8466;52.286;21.124;2022-12-11T09:29:07;-1.80;99.90
16700;DHT22;8466;52.286;21.124;2022-12-11T09:31:37;-1.90;99.90
16700;DHT22;8466;52.286;21.124;2022-12-11T09:34:09;-1.90;99.90
16700;DHT22;8466;52.286;21.124;2022-12-11T09:36:40;-2.00;99.90
16700;DHT22;8466;52.286;21.124;2022-12-11T09:39:12;-2.00;99.90
16700;DHT22;8466;52.286;21.124;2022-12-11T09:41:48;-2.00;99.90
16700;DHT22;8466;52.286;21.124;2022-12-11T09:44:29;-1.90;99.90
16700;DHT22;8466;52.286;21.124;2022-12-11T09:47:00;-2.00;99.90
16700;DHT22;8466;52.286;21.124;2022-12-11T09:49:35;-2.00;99.90
16700;DHT22;8466;52.286;21.124;2022-12-11T09:52:11;-2.00;99.90
16700;DHT22;8466;52.286;21.124;2022-12-11T09:54:47;-1.90;99.90
16700;DHT22;8466;52.286;21.124;2022-12-11T09:57:28;-1.80;99.90
16700;DHT22;8466;52.286;21.124;2022-12-11T10:00:06;-1.80;99.90
16700;DHT22;8466;52.286;21.124;2022-12-11T10:02:54;-1.80;99.90
16700;DHT22;8466;52.286;21.124;2022-12-11T10:05:30;-1.70;99.90
16700;DHT22;8466;52.286;21.124;2022-12-11T10:08:07;-1.80;99.90
16700;DHT22;8466;52.286;21.124;2022-12-11T10:10:42;-1.90;99.90
16700;DHT22;8466;52.286;21.124;2022-12-11T10:13:23;-1.90;99.90
16700;DHT22;8466;52.286;21.124;2022-12-11T10:15:59;-1.80;99.90
16700;DHT22;8466;52.286;21.124;2022-12-11T10:18:31;-1.80;99.90
16700;DHT22;8466;52.286;21.124;2022-12-11T10:21:02;-1.70;99.90
16700;DHT22;8466;52.286;21.124;2022-12-11T10:23:35;-1.70;99.90
16700;DHT22;8466;52.286;21.124;2022-12-11T10:26:09;-1.70;99.90
16700;DHT22;8466;52.286;21.124;2022-12-11T10:28:38;-1.80;99.90
16700;DHT22;8466;52.286;21.124;2022-12-11T10:31:14;-1.80;99.90
16700;DHT22;8466;52.286;21.124;2022-12-11T10:33:54;-1.80;99.90
16700;DHT22;8466;52.286;21.124;2022-12-11T10:36:27;-1.80;99.90
16700;DHT22;8466;52.286;21.124;2022-12-11T10:38:59;-1.70;99.90
16700;DHT22;8466;52.286;21.124;2022-12-11T10:41:35;-1.70;99.90
16700;DHT22;8466;52.286;21.124;2022-12-11T10:44:14;-1.70;99.90
16700;DHT22;8466;52.286;21.124;2022-12-11T10:46:59;-1.90;99.90
16700;DHT22;8466;52.286;21.124;2022-12-11T10:49:32;-1.90;99.90
16700;DHT22;8466;52.286;21.124;2022-12-11T10:52:09;-1.90;99.90
16700;DHT22;8466;52.286;21.124;2022-12-11T10:54:39;-2.00;99.90
16700;DHT22;8466;52.286;21.124;2022-12-11T10:57:10;-1.90;99.90
16700;DHT22;8466;52.286;21.124;2022-12-11T10:59:45;-1.90;99.90
16700;DHT22;8466;52.286;21.124;2022-12-11T11:02:20;-1.90;99.90
16700;DHT22;8466;52.286;21.124;2022-12-11T11:04:53;-1.90;99.90
16700;DHT22;8466;52.286;21.124;2022-12-11T11:07:27;-1.90;99.90
16700;DHT22;8466;52.286;21.124;2022-12-11T11:10:12;-1.90;99.90
16700;DHT22;8466;52.286;21.124;2022-12-11T11:12:43;-2.00;99.90
16700;DHT22;8466;52.286;21.124;2022-12-11T11:15:14;-1.90;99.90
16700;DHT22;8466;52.286;21.124;2022-12-11T11:17:46;-1.90;99.90
16700;DHT22;8466;52.286;21.124;2022-12-11T11:20:25;-1.90;99.90
16700;DHT22;8466;52.286;21.124;2022-12-11T11:22:56;-1.90;99.90
16700;DHT22;8466;52.286;21.124;2022-12-11T11:25:28;-1.90;99.90
16700;DHT22;8466;52.286;21.124;2022-12-11T11:28:01;-2.00;99.90
16700;DHT22;8466;52.286;21.124;2022-12-11T11:30:39;-2.00;99.90
16700;DHT22;8466;52.286;21.124;2022-12-11T11:33:13;-1.90;99.90
16700;DHT22;8466;52.286;21.124;2022-12-11T11:35:53;-2.00;99.90
16700;DHT22;8466;52.286;21.124;2022-12-11T11:38:25;-2.00;99.90
16700;DHT22;8466;52.286;21.124;2022-12-11T11:41:03;-2.00;99.90
16700;DHT22;8466;52.286;21.124;2022-12-11T11:43:43;-1.90;99.90
16700;DHT22;8466;52.286;21.124;2022-12-11T11:46:16;-1.90;99.90
16700;DHT22;8466;52.286;21.124;2022-12-11T11:48:52;-1.90;99.90
16700;DHT22;8466;52.286;21.124;2022-12-11T11:51:30;-1.90;99.90
16700;DHT22;8466;52.286;21.124;2022-12-11T11:54:07;-1.90;99.90
16700;DHT22;8466;52.286;21.124;2022-12-11T11:56:38;-2.00;99.90
16700;DHT22;8466;52.286;21.124;2022-12-11T11:59:13;-2.00;99.90
16700;DHT22;8466;52.286;21.124;2022-12-11T12:01:45;-1.90;99.90
16700;DHT22;8466;52.286;21.124;2022-12-11T12:04:14;-1.90;99.90
16700;DHT22;8466;52.286;21.124;2022-12-11T12:06:59;-1.90;99.90
16700;DHT22;8466;52.286;21.124;2022-12-11T12:09:38;-1.90;99.90
16700;DHT22;8466;52.286;21.124;2022-12-11T12:12:16;-1.90;99.90
16700;DHT22;8466;52.286;21.124;2022-12-11T12:15:05;-1.90;99.90
16700;DHT22;8466;52.286;21.124;2022-12-11T12:17:44;-1.90;99.90
16700;DHT22;8466;52.286;21.124;2022-12-11T12:20:28;-2.00;99.90
16700;DHT22;8466;52.286;21.124;2022-12-11T12:23:23;-2.00;99.90
16700;DHT22;8466;52.286;21.124;2022-12-11T12:26:05;-2.10;99.90
16700;DHT22;8466;52.286;21.124;2022-12-11T12:28:43;-2.10;99.90
16700;DHT22;8466;52.286;21.124;2022-12-11T12:31:36;-2.10;99.90
16700;DHT22;8466;52.286;21.124;2022-12-11T12:34:15;-2.10;99.90
16700;DHT22;8466;52.286;21.124;2022-12-11T12:36:55;-2.10;99.90
16700;DHT22;8466;52.286;21.124;2022-12-11T12:39:39;-2.00;99.90
16700;DHT22;8466;52.286;21.124;2022-12-11T12:42:18;-2.10;99.90
16700;DHT22;8466;52.286;21.124;2022-12-11T12:44:58;-2.00;99.90
16700;DHT22;8466;52.286;21.124;2022-12-11T12:47:32;-1.90;99.90
16700;DHT22;8466;52.286;21.124;2022-12-11T12:50:05;-2.00;99.90
16700;DHT22;8466;52.286;21.124;2022-12-11T12:52:39;-2.00;99.90
16700;DHT22;8466;52.286;21.124;2022-12-11T12:55:19;-2.00;99.90
16700;DHT22;8466;52.286;21.124;2022-12-11T12:57:52;-2.00;99.90
16700;DHT22;8466;52.286;21.124;2022-12-11T13:00:31;-2.00;99.90
16700;DHT22;8466;52.286;21.124;2022-12-11T13:03:02;-2.00;99.90
16700;DHT22;8466;52.286;21.124;2022-12-11T13:05:42;-2.00;99.90
16700;DHT22;8466;52.286;21.124;2022-12-11T13:08:12;-2.00;99.90
16700;DHT22;8466;52.286;21.124;2022-12-11T13:10:59;-2.00;99.90
16700;DHT22;8466;52.286;21.124;2022-12-11T13:13:33;-2.10;99.90
16700;DHT22;8466;52.286;21.124;2022-12-11T13:16:20;-2.10;99.90
16700;DHT22;8466;52.286;21.124;2022-12-11T13:18:51;-2.10;99.90
16700;DHT22;8466;52.286;21.124;2022-12-11T13:21:29;-2.10;99.90
16700;DHT22;8466;52.286;21.124;2022-12-11T13:24:14;-2.20;99.90
16700;DHT22;8466;52.286;21.124;2022-12-11T13:26:45;-2.30;99.90
16700;DHT22;8466;52.286;21.124;2022-12-11T13:29:33;-2.30;99.90
16700;DHT22;8466;52.286;21.124;2022-12-11T13:32:04;-2.30;99.90
16700;DHT22;8466;52.286;21.124;2022-12-11T13:34:52;-2.40;99.90
16700;DHT22;8466;52.286;21.124;2022-12-11T13:37:26;-2.30;99.90
16700;DHT22;8466;52.286;21.124;2022-12-11T13:39:58;-2.40;99.90
16700;DHT22;8466;52.286;21.124;2022-12-11T13:42:32;-2.30;99.90
16700;DHT22;8466;52.286;21.124;2022-12-11T13:45:02;-2.40;99.90
16700;DHT22;8466;52.286;21.124;2022-12-11T13:47:32;-2.40;99.90
16700;DHT22;8466;52.286;21.124;2022-12-11T13:50:12;-2.40;99.90
16700;DHT22;8466;52.286;21.124;2022-12-11T13:52:52;-2.30;99.90
16700;DHT22;8466;52.286;21.124;2022-12-11T13:55:23;-2.40;99.90
16700;DHT22;8466;52.286;21.124;2022-12-11T13:57:54;-2.40;99.90
16700;DHT22;8466;52.286;21.124;2022-12-11T14:00:25;-2.40;99.90
16700;DHT22;8466;52.286;21.124;2022-12-11T14:02:56;-2.40;99.90
16700;DHT22;8466;52.286;21.124;2022-12-11T14:05:26;-2.40;99.90
16700;DHT22;8466;52.286;21.124;2022-12-11T14:07:57;-2.40;99.90
16700;DHT22;8466;52.286;21.124;2022-12-11T14:10:28;-2.40;99.90
16700;DHT22;8466;52.286;21.124;2022-12-11T14:13:02;-2.50;99.90
16700;DHT22;8466;52.286;21.124;2022-12-11T14:15:34;-2.50;99.90
16700;DHT22;8466;52.286;21.124;2022-12-11T14:18:05;-2.50;99.90
16700;DHT22;8466;52.286;21.124;2022-12-11T14:20:33;-2.50;99.90
16700;DHT22;8466;52.286;21.124;2022-12-11T14:23:06;-2.50;99.90
16700;DHT22;8466;52.286;21.124;2022-12-11T14:25:37;-2.50;99.90
16700;DHT22;8466;52.286;21.124;2022-12-11T14:28:15;-2.50;99.90
16700;DHT22;8466;52.286;21.124;2022-12-11T14:30:48;-2.50;99.90
16700;DHT22;8466;52.286;21.124;2022-12-11T14:33:20;-2.50;99.90
16700;DHT22;8466;52.286;21.124;2022-12-11T14:35:51;-2.60;99.90
16700;DHT22;8466;52.286;21.124;2022-12-11T14:38:24;-2.60;99.90
16700;DHT22;8466;52.286;21.124;2022-12-11T14:40:57;-2.60;99.90
16700;DHT22;8466;52.286;21.124;2022-12-11T14:43:32;-2.70;99.90
16700;DHT22;8466;52.286;21.124;2022-12-11T14:46:05;-2.70;99.90
16700;DHT22;8466;52.286;21.124;2022-12-11T14:48:43;-2.70;99.90
16700;DHT22;8466;52.286;21.124;2022-12-11T14:51:17;-2.70;99.90
16700;DHT22;8466;52.286;21.124;2022-12-11T14:53:48;-2.70;99.90
16700;DHT22;8466;52.286;21.124;2022-12-11T14:56:20;-2.70;99.90
16700;DHT22;8466;52.286;21.124;2022-12-11T14:58:55;-2.70;99.90
16700;DHT22;8466;52.286;21.124;2022-12-11T15:01:26;-2.70;99.90
16700;DHT22;8466;52.286;21.124;2022-12-11T15:04:05;-2.70;99.90
16700;DHT22;8466;52.286;21.124;2022-12-11T15:06:43;-2.70;99.90
16700;DHT22;8466;52.286;21.124;2022-12-11T15:09:18;-2.70;99.90
16700;DHT22;8466;52.286;21.124;2022-12-11T15:11:48;-2.70;99.90
16700;DHT22;8466;52.286;21.124;2022-12-11T15:14:20;-2.70;99.90
16700;DHT22;8466;52.286;21.124;2022-12-11T15:16:52;-2.70;99.90
16700;DHT22;8466;52.286;21.124;2022-12-11T15:19:26;-2.70;99.90
16700;DHT22;8466;52.286;21.124;2022-12-11T15:22:00;-2.70;99.90
16700;DHT22;8466;52.286;21.124;2022-12-11T15:24:35;-2.70;99.90
16700;DHT22;8466;52.286;21.124;2022-12-11T15:27:05;-2.70;99.90
16700;DHT22;8466;52.286;21.124;2022-12-11T15:29:42;-2.70;99.90
16700;DHT22;8466;52.286;21.124;2022-12-11T15:32:16;-2.60;99.90
16700;DHT22;8466;52.286;21.124;2022-12-11T15:34:48;-2.60;99.90
16700;DHT22;8466;52.286;21.124;2022-12-11T15:37:22;-2.60;99.90
16700;DHT22;8466;52.286;21.124;2022-12-11T15:39:52;-2.60;99.90
16700;DHT22;8466;52.286;21.124;2022-12-11T15:42:24;-2.60;99.90
16700;DHT22;8466;52.286;21.124;2022-12-11T15:44:55;-2.70;99.90
16700;DHT22;8466;52.286;21.124;2022-12-11T15:47:26;-2.60;99.90
16700;DHT22;8466;52.286;21.124;2022-12-11T15:49:58;-2.70;99.90
16700;DHT22;8466;52.286;21.124;2022-12-11T15:52:27;-2.70;99.90
16700;DHT22;8466;52.286;21.124;2022-12-11T15:54:56;-2.70;99.90
16700;DHT22;8466;52.286;21.124;2022-12-11T15:57:25;-2.70;99.90
16700;DHT22;8466;52.286;21.124;2022-12-11T15:59:57;-2.70;99.90
16700;DHT22;8466;52.286;21.124;2022-12-11T16:02:27;-2.70;99.90
16700;DHT22;8466;52.286;21.124;2022-12-11T16:04:56;-2.80;99.90